Time;durP1;ratioP1;P1;durP2;ratioP2;P2;SDS_P1;SDS_P2;PMS_P1;PMS_P2;Temp;Humidity;BMP_temperature;BMP_pressure;BME280_temperature;BME280_humidity;BME280_pressure;Samples;Min_cycle;Max_cycle;Signal;HPM_P1;HPM_P2
2022/12/04 00:01:28;;;;;;;22.57;15.97;;;;;;;3.28;100.00;96105.34;5061069;28;20203;-62
2022/12/04 00:03:55;;;;;;;23.47;16.23;;;;;;;3.32;100.00;96118.06;5064601;28;20225;-63
2022/12/04 00:06:22;;;;;;;21.90;16.53;;;;;;;3.30;100.00;96111.28;5060804;28;20203;-63
2022/12/04 00:08:49;;;;;;;23.20;16.97;;;;;;;3.31;100.00;96102.50;5062900;28;20634;-63
2022/12/04 00:11:18;;;;;;;24.80;16.87;;;;;;;3.31;100.00;96123.41;5063595;28;20202;-61
2022/12/04 00:13:45;;;;;;;22.40;16.53;;;;;;;3.25;100.00;96123.84;5062977;28;20194;-62
2022/12/04 00:16:15;;;;;;;23.97;16.70;;;;;;;3.27;100.00;96119.34;5067109;28;20686;-62
2022/12/04 00:18:42;;;;;;;23.37;16.10;;;;;;;3.22;100.00;96117.06;5056488;28;20203;-63
2022/12/04 00:21:12;;;;;;;25.60;17.07;;;;;;;3.18;100.00;96110.41;5054241;28;20202;-63
2022/12/04 00:23:39;;;;;;;25.23;16.87;;;;;;;3.22;100.00;96108.41;5053285;28;20222;-62
2022/12/04 00:26:07;;;;;;;24.63;16.57;;;;;;;3.19;100.00;96111.25;5053381;28;20220;-62
2022/12/04 00:28:34;;;;;;;24.13;16.50;;;;;;;3.22;100.00;96101.41;5053323;28;20230;-63
2022/12/04 00:31:05;;;;;;;27.20;17.43;;;;;;;3.22;100.00;96108.41;5053893;28;20213;-63
2022/12/04 00:33:33;;;;;;;26.40;16.90;;;;;;;3.22;100.00;96111.00;5053999;28;20662;-62
2022/12/04 00:36:00;;;;;;;27.97;17.53;;;;;;;3.16;100.00;96107.03;5058202;28;20202;-63
2022/12/04 00:38:28;;;;;;;25.33;16.73;;;;;;;3.19;100.00;96103.41;5054583;28;20535;-63
2022/12/04 00:40:55;;;;;;;27.53;17.30;;;;;;;3.19;100.00;96098.19;5054348;28;20259;-63
2022/12/04 00:43:22;;;;;;;27.20;17.50;;;;;;;3.17;100.00;96110.50;5058600;28;20707;-63
2022/12/04 00:45:50;;;;;;;26.20;17.30;;;;;;;3.15;100.00;96115.00;5071640;28;20511;-63
2022/12/04 00:48:16;;;;;;;27.60;18.33;;;;;;;3.11;100.00;96108.34;5058052;28;20227;-63
2022/12/04 00:50:44;;;;;;;26.07;16.73;;;;;;;3.09;100.00;96105.81;5061213;28;20202;-63
2022/12/04 00:53:11;;;;;;;24.07;15.90;;;;;;;3.11;100.00;96105.72;5057718;28;20218;-62
2022/12/04 00:55:38;;;;;;;27.07;17.87;;;;;;;3.12;100.00;96102.19;5058033;28;20221;-63
2022/12/04 00:58:06;;;;;;;25.37;16.33;;;;;;;3.19;100.00;96108.63;5058060;28;20203;-63
2022/12/04 01:00:33;;;;;;;27.50;17.63;;;;;;;3.13;100.00;96109.06;5057379;28;20242;-63
2022/12/04 01:02:59;;;;;;;29.50;18.80;;;;;;;3.12;100.00;96113.44;5062008;28;20555;-63
2022/12/04 01:05:26;;;;;;;25.80;18.67;;;;;;;3.14;100.00;96115.94;5057261;28;20214;-63
2022/12/04 01:07:54;;;;;;;26.03;18.47;;;;;;;3.15;100.00;96117.63;5057705;28;20226;-63
2022/12/04 01:10:21;;;;;;;25.33;17.57;;;;;;;3.17;100.00;96115.72;5059831;28;20214;-63
2022/12/04 01:12:49;;;;;;;29.00;19.07;;;;;;;3.07;100.00;96110.34;5057623;28;20535;-63
2022/12/04 01:15:16;;;;;;;25.10;17.73;;;;;;;3.07;100.00;96106.88;5057432;28;20259;-63
2022/12/04 01:17:44;;;;;;;26.43;18.17;;;;;;;3.13;100.00;96109.06;5057655;28;20211;-62
2022/12/04 01:20:11;;;;;;;27.77;17.83;;;;;;;3.01;100.00;96113.41;5057200;28;20210;-63
2022/12/04 01:22:38;;;;;;;24.87;17.93;;;;;;;3.01;100.00;96106.38;5061827;28;20210;-64
2022/12/04 01:25:07;;;;;;;28.73;18.03;;;;;;;3.11;100.00;96100.50;5057306;28;20218;-63
2022/12/04 01:27:34;;;;;;;28.87;19.33;;;;;;;3.15;100.00;96102.78;5058026;28;20223;-63
2022/12/04 01:30:00;;;;;;;25.70;17.23;;;;;;;3.07;100.00;96102.50;5058305;28;20644;-63
2022/12/04 01:32:28;;;;;;;29.90;18.97;;;;;;;3.08;100.00;96096.34;5060368;28;20218;-64
2022/12/04 01:34:55;;;;;;;29.50;19.23;;;;;;;3.05;100.00;96098.34;5057956;28;20221;-63
2022/12/04 01:37:22;;;;;;;27.13;17.53;;;;;;;3.07;100.00;96099.88;5062315;28;20321;-63
2022/12/04 01:39:49;;;;;;;25.53;17.70;;;;;;;3.08;100.00;96109.41;5058155;28;20301;-64
2022/12/04 01:42:16;;;;;;;28.63;17.87;;;;;;;3.10;100.00;96104.06;5071321;28;20206;-63
2022/12/04 01:44:45;;;;;;;27.97;19.07;;;;;;;3.07;100.00;96101.66;5072017;28;20215;-63
2022/12/04 01:47:12;;;;;;;29.23;18.57;;;;;;;3.06;100.00;96097.38;5058462;28;20227;-63
2022/12/04 01:49:43;;;;;;;28.70;19.33;;;;;;;3.06;100.00;96102.59;5057898;28;20203;-63
2022/12/04 01:52:12;;;;;;;27.40;19.00;;;;;;;3.02;100.00;96102.00;5056616;28;20199;-63
2022/12/04 01:54:41;;;;;;;26.10;18.07;;;;;;;3.11;100.00;96100.50;5057207;28;20211;-63
2022/12/04 01:57:11;;;;;;;28.43;19.73;;;;;;;3.04;100.00;96099.28;5055966;28;20215;-62
2022/12/04 01:59:42;;;;;;;29.73;18.77;;;;;;;3.08;100.00;96098.13;5062144;28;20559;-63
2022/12/04 02:02:11;;;;;;;25.17;18.23;;;;;;;3.07;100.00;96096.44;5060142;28;20198;-63
2022/12/04 02:04:39;;;;;;;29.30;18.60;;;;;;;3.11;100.00;96095.28;5056681;28;20203;-62
2022/12/04 02:07:05;;;;;;;30.30;19.20;;;;;;;3.07;100.00;96093.81;5055987;28;20207;-63
2022/12/04 02:09:32;;;;;;;26.03;18.23;;;;;;;3.10;100.00;96093.59;5067570;28;20542;-63
2022/12/04 02:12:05;;;;;;;30.40;19.00;;;;;;;3.12;100.00;96087.31;5058359;28;20651;-63
2022/12/04 02:14:40;;;;;;;27.40;18.33;;;;;;;3.14;100.00;96095.06;5056250;28;20222;-62
2022/12/04 02:17:17;;;;;;;27.73;18.63;;;;;;;3.11;100.00;96084.84;5056523;28;20206;-63
2022/12/04 02:20:00;;;;;;;29.63;20.50;;;;;;;3.09;100.00;96091.94;5056216;28;20530;-62
2022/12/04 02:22:42;;;;;;;31.47;19.47;;;;;;;3.10;100.00;96093.59;5056538;28;20198;-63
2022/12/04 02:25:14;;;;;;;29.13;18.87;;;;;;;3.07;100.00;96084.22;5056015;28;20539;-63
2022/12/04 02:28:01;;;;;;;28.50;17.73;;;;;;;3.03;100.00;96077.53;5055770;28;20567;-63
2022/12/04 02:30:29;;;;;;;27.67;17.93;;;;;;;3.06;100.00;96082.53;5056048;28;20206;-63
2022/12/04 02:33:01;;;;;;;26.73;18.67;;;;;;;2.99;100.00;96086.53;5055563;28;20206;-63
2022/12/04 02:35:31;;;;;;;31.00;18.63;;;;;;;2.95;100.00;96085.94;5056804;28;20207;-63
2022/12/04 02:38:04;;;;;;;26.53;17.67;;;;;;;2.99;100.00;96086.53;5057651;28;20250;-64
2022/12/04 02:40:36;;;;;;;29.50;19.37;;;;;;;2.94;100.00;96078.22;5056135;28;20555;-64
2022/12/04 02:43:08;;;;;;;27.30;18.97;;;;;;;2.92;100.00;96086.16;5063438;28;20198;-62
2022/12/04 02:45:39;;;;;;;30.57;19.60;;;;;;;2.94;100.00;96086.88;5055408;28;20203;-63
2022/12/04 02:48:07;;;;;;;28.80;18.93;;;;;;;2.93;100.00;96098.28;5056767;28;20230;-64
2022/12/04 02:50:36;;;;;;;30.77;19.57;;;;;;;2.92;100.00;96095.75;5059457;28;20214;-63
2022/12/04 02:53:05;;;;;;;29.73;19.57;;;;;;;2.92;100.00;96095.75;5056230;28;20215;-63
2022/12/04 02:55:36;;;;;;;28.93;19.37;;;;;;;2.97;100.00;96102.34;5055574;28;20251;-64
2022/12/04 02:58:09;;;;;;;30.07;18.70;;;;;;;2.98;100.00;96096.16;5059194;28;20199;-63
2022/12/04 03:00:36;;;;;;;30.27;19.03;;;;;;;2.98;100.00;96098.75;5062273;28;20200;-63
2022/12/04 03:03:06;;;;;;;25.70;18.23;;;;;;;3.00;100.00;96093.44;5067299;28;20206;-63
2022/12/04 03:05:39;;;;;;;30.17;20.17;;;;;;;2.96;100.00;96092.00;5057792;28;20210;-64
2022/12/04 03:08:08;;;;;;;29.80;19.43;;;;;;;2.99;100.00;96100.44;5055233;28;20232;-63
2022/12/04 03:10:38;;;;;;;30.27;19.67;;;;;;;3.04;100.00;96088.84;5056219;28;20214;-63
2022/12/04 03:13:09;;;;;;;33.13;20.37;;;;;;;3.00;100.00;96099.50;5055879;28;20209;-63
2022/12/04 03:15:41;;;;;;;31.37;20.97;;;;;;;2.95;100.00;96096.38;5055503;28;20221;-63
2022/12/04 03:18:13;;;;;;;30.13;19.37;;;;;;;2.97;100.00;96084.06;5055402;28;20650;-63
2022/12/04 03:20:39;;;;;;;33.00;20.37;;;;;;;2.94;100.00;96081.63;5055731;28;20207;-63
2022/12/04 03:23:10;;;;;;;31.20;19.53;;;;;;;2.95;100.00;96074.66;5069071;28;20214;-63
2022/12/04 03:25:40;;;;;;;31.87;19.70;;;;;;;2.92;100.00;96080.94;5055407;28;20224;-63
2022/12/04 03:28:14;;;;;;;31.30;20.03;;;;;;;2.92;100.00;96083.53;5054583;28;20223;-63
2022/12/04 03:30:45;;;;;;;28.90;18.97;;;;;;;2.93;100.00;96073.94;5057348;28;20575;-62
2022/12/04 03:33:13;;;;;;;36.33;20.63;;;;;;;2.93;100.00;96074.78;5059721;28;20199;-63
2022/12/04 03:35:42;;;;;;;34.03;21.80;;;;;;;2.95;100.00;96075.47;5060030;28;20202;-63
2022/12/04 03:38:13;;;;;;;32.20;20.50;;;;;;;2.95;100.00;96079.88;5063410;28;20233;-64
2022/12/04 03:40:43;;;;;;;31.57;19.67;;;;;;;2.95;100.00;96077.25;5073084;28;20213;-63
2022/12/04 03:43:14;;;;;;;30.80;20.20;;;;;;;2.95;100.00;96083.31;5058981;28;20199;-63
2022/12/04 03:45:45;;;;;;;29.07;20.47;;;;;;;2.94;100.00;96084.25;5058897;28;20203;-64
2022/12/04 03:48:17;;;;;;;31.50;19.20;;;;;;;2.98;100.00;96079.66;5058579;28;20683;-64
2022/12/04 03:50:48;;;;;;;32.90;21.17;;;;;;;2.92;100.00;96080.94;5068427;28;20203;-62
2022/12/04 03:53:19;;;;;;;31.27;20.03;;;;;;;2.92;100.00;96080.94;5065644;28;20211;-63
2022/12/04 03:55:49;;;;;;;31.70;20.67;;;;;;;2.96;100.00;96077.16;5054746;28;20206;-63
2022/12/04 03:58:21;;;;;;;34.57;21.03;;;;;;;2.93;100.00;96077.38;5054833;28;20207;-63
2022/12/04 04:00:51;;;;;;;30.07;19.80;;;;;;;2.92;100.00;96069.66;5054805;28;20207;-62
2022/12/04 04:03:20;;;;;;;30.47;19.67;;;;;;;2.92;100.00;96070.47;5058828;28;20207;-63
2022/12/04 04:05:48;;;;;;;31.27;20.43;;;;;;;2.91;100.00;96081.88;5054017;28;20203;-63
2022/12/04 04:08:28;;;;;;;28.27;19.13;;;;;;;2.89;100.00;96086.38;5054699;28;20241;-62
2022/12/04 04:10:56;;;;;;;28.93;19.23;;;;;;;2.95;100.00;96074.66;5054203;28;20206;-63
2022/12/04 04:24:28;;;;;;;27.27;18.10;;;;;;;2.96;100.00;96048.44;5058576;28;20237;-63
2022/12/04 04:26:58;;;;;;;27.03;17.57;;;;;;;2.99;100.00;96045.59;5058514;28;20213;-63
2022/12/04 04:29:26;;;;;;;29.67;18.30;;;;;;;2.96;100.00;96051.03;5059086;28;20225;-63
2022/12/04 04:31:58;;;;;;;28.97;19.03;;;;;;;2.94;100.00;96058.13;5058356;28;20226;-62
2022/12/04 04:34:31;;;;;;;31.80;19.10;;;;;;;2.91;100.00;96062.75;5058540;28;20227;-63
2022/12/04 04:37:02;;;;;;;29.57;19.20;;;;;;;2.94;100.00;96065.16;5062587;28;20235;-62
2022/12/04 04:39:32;;;;;;;26.50;17.03;;;;;;;2.91;100.00;96063.59;5058929;28;20203;-64
2022/12/04 04:42:03;;;;;;;27.63;18.60;;;;;;;2.91;100.00;96063.59;5059581;28;20230;-63
2022/12/04 04:44:37;;;;;;;28.93;18.83;;;;;;;2.91;100.00;96071.41;5059229;28;20644;-62
2022/12/04 04:47:07;;;;;;;27.20;17.27;;;;;;;2.91;100.00;96068.81;5059700;28;20206;-63
2022/12/04 04:49:34;;;;;;;26.77;18.27;;;;;;;2.93;100.00;96077.38;5059735;28;20227;-63
2022/12/04 04:52:02;;;;;;;29.77;18.90;;;;;;;2.91;100.00;96073.19;5059923;28;20211;-63
2022/12/04 04:54:29;;;;;;;26.83;17.30;;;;;;;2.97;100.00;96072.78;5061292;28;20203;-63
2022/12/04 04:56:56;;;;;;;28.03;19.17;;;;;;;2.90;100.00;96072.38;5073875;28;20210;-63
2022/12/04 04:59:23;;;;;;;25.87;17.67;;;;;;;2.92;100.00;96064.44;5065858;28;20627;-63
2022/12/04 05:01:51;;;;;;;29.27;18.23;;;;;;;2.96;100.00;96069.31;5059619;28;20207;-63
2022/12/04 05:04:17;;;;;;;30.47;18.57;;;;;;;2.99;100.00;96071.72;5060925;28;20226;-63
2022/12/04 05:06:44;;;;;;;28.83;19.13;;;;;;;3.01;100.00;96069.00;5061074;28;20237;-63
2022/12/04 05:09:10;;;;;;;27.77;18.70;;;;;;;2.97;100.00;96057.94;5059040;28;20249;-63
2022/12/04 05:11:37;;;;;;;28.17;18.80;;;;;;;2.95;100.00;96057.22;5058460;28;20203;-63
2022/12/04 05:14:04;;;;;;;28.23;18.00;;;;;;;2.96;100.00;96052.81;5070392;28;20570;-63
2022/12/04 05:16:32;;;;;;;28.23;18.23;;;;;;;2.98;100.00;96054.38;5062590;28;20215;-63
2022/12/04 05:21:44;;;;;;;28.10;19.47;;;;;;;2.95;100.00;96075.47;5063322;28;20209;-63
2022/12/04 05:24:10;;;;;;;26.63;18.23;;;;;;;2.98;100.00;96080.47;5059712;28;20210;-63
2022/12/04 05:26:37;;;;;;;25.40;17.20;;;;;;;2.99;100.00;96082.16;5058668;28;20210;-63
2022/12/04 05:29:03;;;;;;;28.17;18.43;;;;;;;3.01;100.00;96084.66;5058175;28;20261;-63
2022/12/04 05:31:30;;;;;;;28.00;18.60;;;;;;;3.01;100.00;96067.19;5058273;28;20244;-63
2022/12/04 05:33:57;;;;;;;28.57;18.33;;;;;;;3.07;100.00;96065.09;5057663;28;20224;-63
2022/12/04 05:36:25;;;;;;;27.77;18.40;;;;;;;3.03;100.00;96071.47;5061685;28;20242;-63
2022/12/04 05:38:51;;;;;;;26.77;17.47;;;;;;;3.02;100.00;96070.66;5057504;28;20749;-63
2022/12/04 05:41:18;;;;;;;26.07;17.43;;;;;;;2.98;100.00;96064.81;5057603;28;20205;-63
2022/12/04 05:43:45;;;;;;;24.70;17.03;;;;;;;2.86;100.00;96070.94;5057140;28;20204;-63
2022/12/04 05:46:11;;;;;;;26.63;18.17;;;;;;;2.86;100.00;96086.59;5057209;28;20219;-63
2022/12/04 05:48:38;;;;;;;25.63;17.83;;;;;;;2.83;100.00;96081.59;5057145;28;20238;-63
2022/12/04 05:51:06;;;;;;;25.73;18.70;;;;;;;2.83;100.00;96083.38;5056492;28;20207;-62
2022/12/04 05:53:34;;;;;;;29.20;19.53;;;;;;;2.86;100.00;96085.75;5056622;28;20524;-63
2022/12/04 05:56:02;;;;;;;25.33;18.27;;;;;;;2.87;100.00;96080.41;5056718;28;20624;-63
2022/12/04 05:58:29;;;;;;;28.20;18.80;;;;;;;2.91;100.00;96078.41;5057291;28;20198;-63
2022/12/04 06:00:56;;;;;;;25.57;17.97;;;;;;;2.93;100.00;96080.00;5056803;28;20203;-62
2022/12/04 06:03:25;;;;;;;28.27;18.23;;;;;;;2.93;100.00;96077.38;5056968;28;20288;-63
2022/12/04 06:05:52;;;;;;;24.47;17.33;;;;;;;2.94;100.00;96083.44;5068946;28;20589;-63
2022/12/04 06:08:19;;;;;;;26.80;18.93;;;;;;;2.98;100.00;96077.88;5064416;28;20198;-63
2022/12/04 06:10:47;;;;;;;27.77;18.07;;;;;;;2.93;100.00;96080.00;5056581;28;20207;-63
2022/12/04 06:13:14;;;;;;;25.53;17.57;;;;;;;2.95;100.00;96080.72;5056293;28;20623;-63
2022/12/04 06:15:40;;;;;;;23.83;17.80;;;;;;;2.99;100.00;96079.53;5056651;28;20211;-63
2022/12/04 06:18:07;;;;;;;27.23;17.90;;;;;;;3.00;100.00;96073.38;5056696;28;20547;-64
2022/12/04 06:20:34;;;;;;;25.57;16.77;;;;;;;2.98;100.00;96077.03;5056642;28;20240;-62
2022/12/04 06:23:01;;;;;;;26.43;17.67;;;;;;;2.94;100.00;96079.03;5060937;28;20199;-63
2022/12/04 06:25:27;;;;;;;24.50;16.80;;;;;;;2.97;100.00;96088.44;5056346;28;20207;-63
2022/12/04 06:27:55;;;;;;;25.90;17.27;;;;;;;2.95;100.00;96096.38;5056489;28;20218;-62
2022/12/04 06:30:22;;;;;;;24.70;16.87;;;;;;;2.90;100.00;96097.66;5056217;28;20546;-62
2022/12/04 06:32:49;;;;;;;24.33;16.97;;;;;;;2.91;100.00;96099.31;5060555;28;20203;-63
2022/12/04 06:35:15;;;;;;;23.03;16.37;;;;;;;2.93;100.00;96098.28;5055964;28;20211;-63
2022/12/04 06:37:42;;;;;;;28.70;17.00;;;;;;;2.94;100.00;96097.31;5060737;28;20243;-63
2022/12/04 06:40:09;;;;;;;26.70;17.00;;;;;;;2.96;100.00;96092.81;5055768;28;20203;-63
2022/12/04 06:42:36;;;;;;;24.13;16.83;;;;;;;2.99;100.00;96097.81;5058248;28;20203;-63
2022/12/04 06:45:05;;;;;;;25.03;16.83;;;;;;;2.99;100.00;96099.59;5055911;28;20225;-63
2022/12/04 06:47:31;;;;;;;25.63;15.60;;;;;;;3.05;100.00;96112.22;5055611;28;20239;-63
2022/12/04 06:49:58;;;;;;;25.93;16.97;;;;;;;3.04;100.00;96100.13;5055200;28;20246;-62
2022/12/04 06:52:25;;;;;;;23.77;16.93;;;;;;;3.02;100.00;96107.22;5055564;28;20203;-63
2022/12/04 06:54:52;;;;;;;22.10;16.47;;;;;;;3.03;100.00;96106.28;5055760;28;20231;-62
2022/12/04 06:57:18;;;;;;;23.57;16.83;;;;;;;3.03;100.00;96102.81;5055654;28;21055;-63
2022/12/04 06:59:45;;;;;;;24.87;16.80;;;;;;;2.95;100.00;96112.03;5064420;28;20196;-62
2022/12/04 07:02:13;;;;;;;30.17;17.33;;;;;;;2.97;100.00;96109.34;5063105;28;20202;-63
2022/12/04 07:04:39;;;;;;;22.00;16.53;;;;;;;3.01;100.00;96105.56;5055721;28;20214;-63
2022/12/04 07:07:08;;;;;;;26.13;17.57;;;;;;;3.01;100.00;96110.78;5056157;28;20207;-62
2022/12/04 07:09:35;;;;;;;23.20;15.57;;;;;;;3.08;100.00;96121.63;5055505;28;20269;-62
2022/12/04 07:12:02;;;;;;;22.93;16.33;;;;;;;3.08;100.00;96116.41;5056597;28;20203;-63
2022/12/04 07:14:28;;;;;;;24.43;16.67;;;;;;;3.06;100.00;96113.88;5057020;28;20210;-62
2022/12/04 07:16:55;;;;;;;23.40;16.17;;;;;;;3.07;100.00;96107.72;5060666;28;20209;-63
2022/12/04 07:19:23;;;;;;;24.30;16.00;;;;;;;3.14;100.00;96115.94;5064736;28;20207;-63
2022/12/04 07:21:49;;;;;;;23.63;15.80;;;;;;;3.12;100.00;96112.63;5061419;28;20542;-63
2022/12/04 07:24:17;;;;;;;23.37;15.37;;;;;;;3.18;100.00;96112.19;5055643;28;20206;-62
2022/12/04 07:26:44;;;;;;;22.83;15.73;;;;;;;3.17;100.00;96115.72;5056009;28;20218;-63
2022/12/04 07:29:11;;;;;;;24.00;16.27;;;;;;;3.17;100.00;96110.50;5056181;28;20227;-64
2022/12/04 07:31:38;;;;;;;27.80;16.63;;;;;;;3.15;100.00;96107.19;5055978;28;20262;-62
2022/12/04 07:34:04;;;;;;;23.23;16.43;;;;;;;3.24;100.00;96111.72;5055191;28;20221;-63
2022/12/04 07:36:32;;;;;;;24.60;16.67;;;;;;;3.28;100.00;96105.34;5059138;28;20683;-63
2022/12/04 07:38:59;;;;;;;24.57;16.43;;;;;;;3.32;100.00;96109.41;5055949;28;20206;-63
2022/12/04 07:41:26;;;;;;;24.37;16.63;;;;;;;3.31;100.00;96112.94;5054926;28;20203;-63
2022/12/04 07:43:53;;;;;;;25.30;18.10;;;;;;;3.28;100.00;96123.63;5055043;28;20396;-63
2022/12/04 07:46:23;;;;;;;24.37;17.00;;;;;;;3.26;100.00;96128.13;5055866;28;20233;-63
2022/12/04 07:48:49;;;;;;;27.63;18.37;;;;;;;3.18;100.00;96123.47;5065230;28;20596;-62
2022/12/04 07:51:17;;;;;;;30.60;17.27;;;;;;;3.17;100.00;96131.41;5054791;28;20207;-63
2022/12/04 07:53:46;;;;;;;25.07;17.60;;;;;;;3.14;100.00;96131.63;5058665;28;20218;-63
2022/12/04 07:56:13;;;;;;;22.37;16.33;;;;;;;3.12;100.00;96120.47;5067245;28;20215;-63
2022/12/04 07:58:40;;;;;;;25.40;17.27;;;;;;;3.05;100.00;96120.03;5075186;28;20202;-62
2022/12/04 08:01:09;;;;;;;26.87;17.13;;;;;;;3.12;100.00;96117.84;5062461;28;20539;-62
2022/12/04 08:03:36;;;;;;;29.37;18.00;;;;;;;3.11;100.00;96122.25;5055199;28;20199;-63
2022/12/04 08:06:03;;;;;;;25.60;17.60;;;;;;;3.14;100.00;96129.00;5054345;28;20209;-69
2022/12/04 08:08:31;;;;;;;28.00;18.17;;;;;;;3.10;100.00;96125.78;5054859;28;20217;-61
2022/12/04 08:10:59;;;;;;;29.10;18.10;;;;;;;3.06;100.00;96121.72;5055270;28;20230;-60
2022/12/04 08:13:26;;;;;;;27.13;18.00;;;;;;;3.04;100.00;96115.78;5055022;28;20214;-61
2022/12/04 08:15:53;;;;;;;24.97;17.37;;;;;;;3.05;100.00;96116.63;5054976;28;20242;-62
2022/12/04 08:18:19;;;;;;;27.57;18.47;;;;;;;3.00;100.00;96109.94;5054923;28;20221;-62
2022/12/04 08:20:46;;;;;;;26.80;17.93;;;;;;;3.00;100.00;96117.78;5054955;28;20205;-63
2022/12/04 08:23:13;;;;;;;28.63;17.73;;;;;;;2.90;100.00;96119.41;5058674;28;20424;-62
2022/12/04 08:25:39;;;;;;;25.60;17.57;;;;;;;2.93;100.00;96124.38;5054954;28;20207;-62
2022/12/04 08:28:07;;;;;;;27.50;17.53;;;;;;;2.90;100.00;96129.84;5059570;28;20203;-63
2022/12/04 08:30:34;;;;;;;26.87;17.70;;;;;;;2.88;100.00;96131.72;5059971;28;20226;-61
2022/12/04 08:33:01;;;;;;;25.83;17.43;;;;;;;2.84;100.00;96135.47;5056185;28;20221;-63
2022/12/04 08:35:28;;;;;;;26.07;16.97;;;;;;;2.88;100.00;96131.72;5062212;28;20207;-62
2022/12/04 08:37:55;;;;;;;25.97;17.90;;;;;;;2.91;100.00;96135.88;5071629;28;20239;-62
2022/12/04 08:40:22;;;;;;;25.97;17.70;;;;;;;2.95;100.00;96138.16;5064310;28;20225;-62
2022/12/04 08:42:49;;;;;;;26.70;16.50;;;;;;;2.94;100.00;96146.94;5056134;28;20272;-62
2022/12/04 08:45:17;;;;;;;25.80;17.53;;;;;;;2.93;100.00;96141.84;5063519;28;20951;-62
2022/12/04 08:47:46;;;;;;;25.43;16.73;;;;;;;2.92;100.00;96148.81;5080290;28;20211;-63
2022/12/04 08:50:12;;;;;;;27.50;16.90;;;;;;;2.95;100.00;96142.53;5061592;28;20227;-64
2022/12/04 08:52:39;;;;;;;28.30;17.10;;;;;;;2.94;100.00;96140.91;5067029;28;20214;-63
2022/12/04 08:55:07;;;;;;;24.67;16.30;;;;;;;2.93;100.00;96134.00;5054396;28;20218;-63
2022/12/04 08:57:33;;;;;;;24.40;16.83;;;;;;;2.94;100.00;96136.47;5054538;28;20199;-64
2022/12/04 09:00:00;;;;;;;27.07;18.17;;;;;;;2.96;100.00;96139.84;5054293;28;20203;-64
2022/12/04 09:02:28;;;;;;;29.63;17.17;;;;;;;2.98;100.00;96144.94;5054570;28;20302;-63
2022/12/04 09:04:55;;;;;;;28.67;17.40;;;;;;;2.98;100.00;96140.56;5054001;28;20214;-62
2022/12/04 09:07:21;;;;;;;23.77;15.33;;;;;;;2.98;100.00;96148.38;5065619;28;20639;-62
2022/12/04 09:09:48;;;;;;;25.13;16.23;;;;;;;2.97;100.00;96151.97;5071085;28;20233;-64
2022/12/04 09:12:14;;;;;;;24.53;16.00;;;;;;;2.99;100.00;96155.28;5071577;28;20214;-62
2022/12/04 09:14:43;;;;;;;26.33;16.83;;;;;;;2.97;100.00;96145.91;5057599;28;20218;-63
2022/12/04 09:17:10;;;;;;;25.93;16.93;;;;;;;2.96;100.00;96158.13;5067356;28;20718;-64
2022/12/04 09:19:38;;;;;;;25.47;16.27;;;;;;;3.01;100.00;96163.84;5064242;28;20207;-63
2022/12/04 09:22:05;;;;;;;28.07;17.30;;;;;;;3.04;100.00;96162.81;5068730;28;20530;-64
2022/12/04 09:24:31;;;;;;;31.00;17.63;;;;;;;3.03;100.00;96161.13;5063671;28;20286;-63
2022/12/04 09:26:58;;;;;;;25.43;16.20;;;;;;;3.01;100.00;96170.84;5057537;28;20211;-63
2022/12/04 09:29:25;;;;;;;27.73;16.80;;;;;;;3.04;100.00;96167.19;5057333;28;20227;-62
2022/12/04 09:31:52;;;;;;;27.13;16.33;;;;;;;2.99;100.00;96175.34;5057382;28;20205;-62
2022/12/04 09:34:18;;;;;;;25.53;16.87;;;;;;;3.04;100.00;96167.19;5057509;28;20539;-63
2022/12/04 09:36:46;;;;;;;25.57;16.93;;;;;;;3.03;100.00;96161.13;5061168;28;20238;-63
2022/12/04 09:39:13;;;;;;;26.23;17.30;;;;;;;3.05;100.00;96161.03;5057299;28;20519;-62
2022/12/04 09:41:58;;;;;;;27.27;17.83;;;;;;;3.04;100.00;96167.19;5065561;28;20210;-62
2022/12/04 09:44:28;;;;;;;23.83;15.73;;;;;;;3.06;100.00;96166.13;5057306;28;20203;-63
2022/12/04 09:47:00;;;;;;;26.37;17.13;;;;;;;3.07;100.00;96153.91;5057742;28;20214;-64
2022/12/04 09:49:33;;;;;;;24.87;16.13;;;;;;;3.07;100.00;96157.34;5057740;28;20203;-61
2022/12/04 09:52:03;;;;;;;25.10;16.23;;;;;;;3.12;100.00;96164.88;5056918;28;20210;-57
2022/12/04 09:54:34;;;;;;;26.83;16.47;;;;;;;3.08;100.00;96155.59;5070160;28;20211;-63
2022/12/04 09:57:02;;;;;;;24.37;16.23;;;;;;;3.11;100.00;96153.59;5057094;28;20511;-62
2022/12/04 09:59:31;;;;;;;26.00;17.07;;;;;;;3.13;100.00;96163.91;5057679;28;20206;-63
2022/12/04 10:02:00;;;;;;;28.83;16.63;;;;;;;3.15;100.00;96157.66;5057388;28;20237;-63
2022/12/04 10:04:27;;;;;;;27.07;16.53;;;;;;;3.11;100.00;96152.75;5057609;28;20210;-62
2022/12/04 10:07:00;;;;;;;25.90;16.50;;;;;;;3.15;100.00;96143.75;5056838;28;20225;-63
2022/12/04 10:09:31;;;;;;;24.73;16.53;;;;;;;3.17;100.00;96147.06;5057472;28;20222;-63
2022/12/04 10:12:04;;;;;;;27.00;16.67;;;;;;;3.09;100.00;96154.63;5059019;28;20206;-64
2022/12/04 10:14:44;;;;;;;24.47;16.60;;;;;;;3.09;100.00;96154.63;5059448;28;20214;-63
2022/12/04 10:17:21;;;;;;;25.60;16.77;;;;;;;3.13;100.00;96150.84;5061033;28;20214;-61
2022/12/04 10:19:54;;;;;;;24.37;16.40;;;;;;;3.11;100.00;96147.53;5065614;28;20218;-63
2022/12/04 10:22:24;;;;;;;24.53;16.40;;;;;;;3.11;100.00;96144.91;5062287;28;20218;-63
2022/12/04 10:24:54;;;;;;;23.40;15.47;;;;;;;3.10;100.00;96156.28;5058579;28;20632;-62
2022/12/04 10:27:24;;;;;;;22.73;15.50;;;;;;;3.17;100.00;96144.47;5060707;28;20209;-64
2022/12/04 10:29:53;;;;;;;23.30;15.30;;;;;;;3.22;100.00;96137.13;5058309;28;20243;-62
2022/12/04 10:32:23;;;;;;;21.93;15.50;;;;;;;3.27;100.00;96132.41;5070431;28;20226;-62
2022/12/04 10:34:52;;;;;;;24.43;14.90;;;;;;;3.28;100.00;96124.47;5057785;28;20414;-63
2022/12/04 10:37:19;;;;;;;21.70;14.77;;;;;;;3.35;100.00;96124.84;5075520;28;20230;-63
2022/12/04 10:39:51;;;;;;;23.97;15.07;;;;;;;3.41;100.00;96114.78;5058762;28;20210;-62
2022/12/04 10:42:27;;;;;;;24.77;15.47;;;;;;;3.33;100.00;96101.44;5060777;28;20211;-62
2022/12/04 10:44:54;;;;;;;19.73;14.30;;;;;;;3.30;100.00;96103.44;5068190;28;20202;-62
2022/12/04 10:47:22;;;;;;;21.37;14.27;;;;;;;3.29;100.00;96102.63;5066854;28;20213;-65
2022/12/04 10:49:53;;;;;;;22.17;14.40;;;;;;;3.41;100.00;96087.81;5070601;28;20660;-65
2022/12/04 10:52:20;;;;;;;23.23;14.17;;;;;;;3.39;100.00;96090.53;5059825;28;20213;-63
2022/12/04 10:54:48;;;;;;;21.80;14.90;;;;;;;3.40;100.00;96083.53;5068435;28;20203;-63
2022/12/04 10:57:16;;;;;;;21.17;14.70;;;;;;;3.42;100.00;96084.25;5058898;28;20532;-63
2022/12/04 10:59:51;;;;;;;18.77;13.13;;;;;;;3.34;100.00;96073.53;5058755;28;20207;-65
2022/12/04 11:02:21;;;;;;;18.60;13.93;;;;;;;3.28;100.00;96066.13;5060448;28;20261;-64
2022/12/04 11:04:52;;;;;;;22.17;15.03;;;;;;;3.26;100.00;96058.41;5057805;28;20222;-62
2022/12/04 11:07:21;;;;;;;22.23;14.60;;;;;;;3.24;100.00;96056.84;5057471;28;20199;-63
2022/12/04 11:09:55;;;;;;;20.37;13.93;;;;;;;3.18;100.00;96054.69;5055228;28;20242;-63
2022/12/04 11:12:23;;;;;;;20.63;13.67;;;;;;;3.17;100.00;96073.94;5055966;28;20209;-64
2022/12/04 11:15:01;;;;;;;21.00;14.17;;;;;;;3.16;100.00;96090.53;5055276;28;20233;-64
2022/12/04 11:17:28;;;;;;;23.90;14.23;;;;;;;3.09;100.00;96103.22;5055169;28;20654;-64
2022/12/04 11:20:02;;;;;;;20.27;13.73;;;;;;;3.07;100.00;96083.38;5054689;28;20218;-64
2022/12/04 11:22:29;;;;;;;19.60;14.33;;;;;;;3.07;100.00;96089.44;5059083;28;20203;-65
2022/12/04 11:24:58;;;;;;;20.23;14.30;;;;;;;3.08;100.00;96085.06;5055321;28;20253;-64
2022/12/04 11:27:27;;;;;;;18.73;13.30;;;;;;;3.09;100.00;96079.72;5055562;28;20226;-63
2022/12/04 11:29:56;;;;;;;20.30;13.77;;;;;;;3.10;100.00;96084.00;5063473;28;20236;-63
2022/12/04 11:32:25;;;;;;;20.00;14.03;;;;;;;3.11;100.00;96090.06;5064237;28;20197;-62
2022/12/04 11:34:54;;;;;;;19.80;13.77;;;;;;;3.11;100.00;96084.84;5063027;28;20302;-63
2022/12/04 11:37:24;;;;;;;21.97;14.73;;;;;;;3.14;100.00;96084.59;5063925;28;20687;-64